Time;durP1;ratioP1;P1;durP2;ratioP2;P2;SDS_P1;SDS_P2;PMS_P1;PMS_P2;Temp;Humidity;BMP_temperature;BMP_pressure;BME280_temperature;BME280_humidity;BME280_pressure;Samples;Min_cycle;Max_cycle;Signal;HPM_P1;HPM_P2
2021/10/31 00:02:04;;;;;;;4.10;1.50;;;;;;;7.03;73.78;98573.09;4966784;28;20086;-53
2021/10/31 00:04:31;;;;;;;3.10;1.08;;;;;;;6.98;74.95;98572.28;4968849;28;20123;-55
2021/10/31 00:06:58;;;;;;;2.00;0.77;;;;;;;6.94;73.38;98574.03;4966192;28;20499;-51
2021/10/31 00:09:25;;;;;;;3.03;1.15;;;;;;;6.93;73.82;98570.59;4967037;28;20058;-46
2021/10/31 00:11:51;;;;;;;4.85;1.98;;;;;;;6.91;74.03;98567.22;4962720;28;20081;-49
2021/10/31 00:14:18;;;;;;;4.10;1.42;;;;;;;6.90;74.84;98565.53;4965511;28;20568;-46
2021/10/31 00:16:45;;;;;;;7.05;1.20;;;;;;;6.89;75.26;98571.50;4969807;28;20637;-51
2021/10/31 00:19:12;;;;;;;3.25;1.70;;;;;;;6.88;75.37;98567.25;4965258;28;20047;-55
2021/10/31 00:21:38;;;;;;;2.63;1.17;;;;;;;6.91;74.68;98569.78;4964302;28;20598;-52
2021/10/31 00:24:05;;;;;;;4.95;1.52;;;;;;;6.92;74.98;98565.47;4968209;28;20090;-53
2021/10/31 00:26:32;;;;;;;5.07;1.75;;;;;;;6.90;74.90;98568.09;4966695;28;20105;-54
2021/10/31 00:28:59;;;;;;;3.30;1.30;;;;;;;6.88;74.73;98569.81;4970113;28;20461;-56
2021/10/31 00:31:25;;;;;;;6.45;1.63;;;;;;;6.88;74.61;98574.09;4969270;28;20043;-52
2021/10/31 00:33:52;;;;;;;4.57;1.65;;;;;;;6.89;74.78;98586.97;4971605;28;20569;-52
2021/10/31 00:36:19;;;;;;;6.47;1.38;;;;;;;6.89;74.60;98568.13;4968733;28;20055;-53
2021/10/31 00:38:45;;;;;;;10.07;1.75;;;;;;;6.88;75.40;98569.81;4968375;28;20054;-55
2021/10/31 00:41:13;;;;;;;6.22;1.17;;;;;;;6.90;75.06;98565.53;4968279;28;20646;-53
2021/10/31 00:43:41;;;;;;;4.57;1.30;;;;;;;6.92;75.60;98563.75;4970422;28;20054;-47
2021/10/31 00:46:08;;;;;;;2.85;1.38;;;;;;;6.91;75.29;98568.94;4971781;28;20073;-49
2021/10/31 00:48:35;;;;;;;6.13;1.23;;;;;;;6.89;75.63;98556.06;4967589;28;20054;-50
2021/10/31 00:51:02;;;;;;;5.80;1.38;;;;;;;6.88;74.90;98549.22;4968482;28;20099;-54
2021/10/31 00:53:30;;;;;;;2.85;0.90;;;;;;;6.84;75.79;98542.41;4969247;28;20102;-54
2021/10/31 00:55:57;;;;;;;5.05;1.27;;;;;;;6.84;75.02;98539.84;4965705;28;20061;-51
2021/10/31 00:58:23;;;;;;;6.20;1.08;;;;;;;6.86;75.88;98530.38;4967372;28;20057;-50
2021/10/31 01:00:50;;;;;;;5.30;1.67;;;;;;;6.85;76.73;98527.84;4973449;28;20105;-54
2021/10/31 01:03:17;;;;;;;2.33;0.95;;;;;;;6.89;75.68;98525.19;4968581;28;20058;-48
2021/10/31 01:05:49;;;;;;;4.50;1.02;;;;;;;6.88;74.90;98513.19;4970256;28;20061;-53
2021/10/31 01:08:43;;;;;;;3.03;0.77;;;;;;;6.87;76.03;98511.50;4969986;28;20062;-53
2021/10/31 01:11:21;;;;;;;3.83;0.93;;;;;;;6.85;76.39;98495.22;4968561;28;20380;-46
2021/10/31 01:14:03;;;;;;;1.52;0.43;;;;;;;6.86;76.21;98491.75;4975456;28;20459;-52
2021/10/31 01:17:09;;;;;;;3.65;1.00;;;;;;;6.86;76.34;98496.91;4968532;28;20454;-52
2021/10/31 01:20:05;;;;;;;3.30;0.82;;;;;;;6.86;76.55;98489.19;4971682;28;20082;-47
2021/10/31 01:22:50;;;;;;;6.43;1.38;;;;;;;6.87;76.65;98485.75;4972575;28;20058;-46
2021/10/31 01:25:45;;;;;;;7.35;0.82;;;;;;;6.91;76.97;98474.56;4986329;28;20490;-51
2021/10/31 01:28:34;;;;;;;4.10;1.23;;;;;;;6.90;76.27;98470.28;4981883;28;20051;-49
2021/10/31 01:31:26;;;;;;;5.35;0.85;;;;;;;6.91;76.42;98471.97;4987557;28;20054;-55
2021/10/31 01:34:19;;;;;;;1.88;0.98;;;;;;;6.93;76.86;98464.25;4985324;28;20050;-56
2021/10/31 01:37:16;;;;;;;2.60;1.02;;;;;;;6.92;76.85;98467.66;4969771;28;20055;-50
2021/10/31 01:39:50;;;;;;;1.77;1.02;;;;;;;6.92;76.67;98468.53;4964670;28;20569;-54
2021/10/31 01:42:28;;;;;;;8.55;1.40;;;;;;;6.94;77.65;98455.63;4974827;28;20124;-54
2021/10/31 01:45:35;;;;;;;2.85;1.15;;;;;;;6.93;77.28;98449.63;4971878;28;20053;-58
2021/10/31 01:48:25;;;;;;;3.42;1.25;;;;;;;6.94;76.57;98445.34;4956002;28;20125;-48
2021/10/31 01:50:57;;;;;;;3.13;0.95;;;;;;;6.97;77.88;98429.88;4985349;28;20097;-56
2021/10/31 01:53:32;;;;;;;4.75;1.10;;;;;;;7.00;76.63;98429.81;4958647;28;20042;-51
2021/10/31 01:56:05;;;;;;;5.10;1.08;;;;;;;7.04;76.46;98417.75;4989899;28;20129;-54
2021/10/31 01:58:38;;;;;;;4.97;1.13;;;;;;;7.03;77.39;98423.78;4971100;28;20051;-53
2021/10/31 02:01:06;;;;;;;2.55;0.88;;;;;;;7.07;77.31;98409.97;4981481;28;20109;-58
2021/10/31 02:03:36;;;;;;;3.70;0.80;;;;;;;7.09;77.84;98417.69;4973299;28;20619;-50
2021/10/31 02:06:04;;;;;;;2.88;0.95;;;;;;;7.14;76.99;98403.88;4971057;28;20063;-54
2021/10/31 02:08:34;;;;;;;2.67;0.88;;;;;;;7.15;76.64;98403.00;4988907;28;20120;-55
2021/10/31 02:11:02;;;;;;;6.25;1.08;;;;;;;7.19;76.27;98391.78;4955530;28;20070;-53
2021/10/31 02:13:31;;;;;;;3.67;1.17;;;;;;;7.25;76.05;98392.53;4968081;28;20046;-53
2021/10/31 02:15:57;;;;;;;5.72;1.00;;;;;;;7.30;77.04;98398.47;4972229;28;20505;-54
2021/10/31 02:18:26;;;;;;;4.70;0.98;;;;;;;7.27;76.53;98388.22;4971812;28;20404;-51
2021/10/31 02:20:57;;;;;;;3.05;0.85;;;;;;;7.27;76.00;98385.66;4969645;28;20051;-50
2021/10/31 02:23:25;;;;;;;3.50;0.45;;;;;;;7.22;76.60;98382.31;4972669;28;20051;-47
2021/10/31 02:25:52;;;;;;;2.63;0.93;;;;;;;7.18;77.05;98372.06;4972875;28;20047;-49
2021/10/31 02:28:19;;;;;;;3.20;0.60;;;;;;;7.23;76.67;98368.56;4963617;28;20082;-47
2021/10/31 02:30:47;;;;;;;3.08;0.93;;;;;;;7.20;76.68;98359.97;4974641;28;20058;-52
2021/10/31 02:33:14;;;;;;;3.75;1.02;;;;;;;7.17;77.42;98349.72;4971449;28;20054;-53
2021/10/31 02:35:41;;;;;;;8.30;1.05;;;;;;;7.16;77.54;98345.47;4971566;28;20558;-47
2021/10/31 02:38:07;;;;;;;7.40;1.00;;;;;;;7.15;76.47;98336.03;4970650;28;20106;-53
2021/10/31 02:40:36;;;;;;;2.63;0.50;;;;;;;7.12;77.26;98341.25;4963121;28;20113;-53
2021/10/31 02:43:05;;;;;;;1.65;0.88;;;;;;;7.15;76.19;98336.03;4968874;28;20299;-55
2021/10/31 02:45:32;;;;;;;7.28;1.05;;;;;;;7.13;77.42;98337.78;4980358;28;20056;-53
2021/10/31 02:48:03;;;;;;;5.28;1.25;;;;;;;7.12;76.34;98342.97;4963071;28;20045;-54
2021/10/31 02:50:37;;;;;;;3.47;1.20;;;;;;;7.12;77.35;98330.94;4980455;28;20102;-50
2021/10/31 02:53:28;;;;;;;3.35;1.05;;;;;;;7.12;77.13;98325.78;4962386;28;20104;-53
2021/10/31 02:56:04;;;;;;;2.88;1.17;;;;;;;7.16;77.83;98321.47;4952628;28;20042;-51
2021/10/31 02:59:01;;;;;;;4.13;1.00;;;;;;;7.13;77.70;98317.19;4962175;28;20105;-55
2021/10/31 03:01:28;;;;;;;4.68;1.20;;;;;;;7.17;77.68;98313.69;4981399;28;20054;-53
2021/10/31 03:03:57;;;;;;;12.30;1.00;;;;;;;7.21;76.99;98311.91;4965379;28;20101;-46
2021/10/31 03:06:24;;;;;;;2.47;1.15;;;;;;;7.25;76.35;98299.81;4980080;28;20502;-54
2021/10/31 03:08:51;;;;;;;6.18;1.52;;;;;;;7.24;78.06;98293.00;4964989;28;20065;-47
2021/10/31 03:11:18;;;;;;;5.18;1.02;;;;;;;7.29;76.62;98280.88;4968378;28;20407;-53
2021/10/31 03:13:45;;;;;;;4.70;0.55;;;;;;;7.32;78.40;98275.66;4966400;28;20069;-52
2021/10/31 03:16:12;;;;;;;4.85;1.10;;;;;;;7.34;77.79;98268.78;4979118;28;20094;-52
2021/10/31 03:18:39;;;;;;;3.08;1.13;;;;;;;7.35;78.13;98269.59;4963605;28;20046;-53
2021/10/31 03:21:06;;;;;;;1.70;1.13;;;;;;;7.37;76.57;98261.00;4965124;28;20458;-54
2021/10/31 03:23:33;;;;;;;2.55;0.77;;;;;;;7.40;76.67;98257.53;4968362;28;20058;-56
2021/10/31 03:26:00;;;;;;;5.18;1.13;;;;;;;7.43;77.53;98247.16;4962554;28;20039;-51
2021/10/31 03:28:26;;;;;;;7.05;0.90;;;;;;;7.46;77.85;98232.47;4964354;28;21050;-49
2021/10/31 03:30:53;;;;;;;2.22;0.70;;;;;;;7.45;77.83;98217.91;4964636;28;20086;-51
2021/10/31 03:33:19;;;;;;;8.57;2.10;;;;;;;7.51;78.05;98216.09;4965184;28;20110;-53
2021/10/31 03:35:46;;;;;;;2.60;1.05;;;;;;;7.47;77.98;98212.72;4965590;28;20051;-52
2021/10/31 03:38:13;;;;;;;6.57;1.42;;;;;;;7.52;77.60;98215.19;4965514;28;20594;-51
2021/10/31 03:40:39;;;;;;;8.30;2.13;;;;;;;7.53;76.84;98217.75;4964632;28;20058;-52
2021/10/31 03:43:06;;;;;;;4.90;1.20;;;;;;;7.50;77.58;98211.81;4965304;28;20058;-52
2021/10/31 03:45:33;;;;;;;2.15;1.55;;;;;;;7.54;77.93;98213.44;4967392;28;20057;-49
2021/10/31 03:48:02;;;;;;;3.95;1.05;;;;;;;7.57;77.47;98213.41;4964774;28;20057;-56
2021/10/31 03:50:28;;;;;;;2.42;0.73;;;;;;;7.55;78.46;98199.69;4960432;28;20439;-52
2021/10/31 03:52:55;;;;;;;1.60;0.63;;;;;;;7.55;77.69;98200.53;4965324;28;20492;-50
2021/10/31 03:55:23;;;;;;;5.60;1.92;;;;;;;7.59;76.99;98199.59;4963427;28;20047;-48
2021/10/31 03:57:50;;;;;;;1.27;1.13;;;;;;;7.59;78.87;98179.00;4966620;28;20130;-54
2021/10/31 04:00:17;;;;;;;3.85;1.75;;;;;;;7.60;77.86;98172.09;4965392;28;20063;-48
2021/10/31 04:02:44;;;;;;;3.45;0.50;;;;;;;7.64;78.11;98176.31;4982214;28;20055;-53
2021/10/31 04:05:12;;;;;;;8.48;1.27;;;;;;;7.64;78.97;98163.44;4966615;28;20503;-55
2021/10/31 04:07:39;;;;;;;5.35;0.95;;;;;;;7.67;78.02;98153.03;4968280;28;20047;-51
2021/10/31 04:10:06;;;;;;;3.05;0.80;;;;;;;7.71;78.91;98154.66;4985926;28;20047;-51
2021/10/31 04:12:34;;;;;;;6.50;1.48;;;;;;;7.72;77.99;98153.81;4967293;28;20047;-57
2021/10/31 04:15:02;;;;;;;2.78;0.73;;;;;;;7.77;78.24;98147.72;4970976;28;20466;-51
2021/10/31 04:17:29;;;;;;;3.00;0.93;;;;;;;7.76;78.23;98152.00;4963890;28;20058;-49
2021/10/31 04:19:55;;;;;;;6.25;1.63;;;;;;;7.79;78.80;98135.63;4969819;28;20540;-46
2021/10/31 04:22:22;;;;;;;5.20;1.85;;;;;;;7.80;79.57;98127.03;4968432;28;20058;-48
2021/10/31 04:24:49;;;;;;;7.60;1.23;;;;;;;7.83;77.90;98129.50;4970229;28;20120;-50
2021/10/31 04:27:15;;;;;;;4.22;1.05;;;;;;;7.85;78.16;98125.19;4968295;28;20043;-55
2021/10/31 04:29:42;;;;;;;4.07;1.00;;;;;;;7.85;78.18;98114.88;4966581;28;20702;-46
2021/10/31 04:32:09;;;;;;;9.32;1.58;;;;;;;7.89;78.28;98116.50;4968976;28;20055;-56
2021/10/31 04:34:35;;;;;;;5.15;1.30;;;;;;;7.88;79.25;98111.38;4968695;28;20043;-51
2021/10/31 04:37:03;;;;;;;2.78;1.02;;;;;;;7.89;79.21;98101.03;4968249;28;20061;-53
2021/10/31 04:39:29;;;;;;;3.40;1.30;;;;;;;7.92;79.52;98093.22;4964971;28;20051;-53
2021/10/31 04:42:03;;;;;;;4.40;1.33;;;;;;;7.93;79.13;98086.31;4981858;28;20137;-50
2021/10/31 04:44:31;;;;;;;5.07;0.50;;;;;;;7.98;78.55;98090.50;4968697;28;20038;-53
2021/10/31 04:46:58;;;;;;;4.32;0.90;;;;;;;8.04;78.92;98093.84;4969336;28;20461;-50
2021/10/31 04:49:26;;;;;;;4.00;0.70;;;;;;;8.08;79.30;98079.97;4965781;28;20050;-55
2021/10/31 04:51:52;;;;;;;2.25;0.55;;;;;;;8.17;79.94;98073.75;4981999;28;20054;-51
2021/10/31 04:54:19;;;;;;;3.65;1.05;;;;;;;8.23;79.52;98068.44;4969846;28;20734;-52
2021/10/31 04:56:46;;;;;;;3.95;1.05;;;;;;;8.27;79.99;98053.75;4968296;28;20046;-51
2021/10/31 04:59:13;;;;;;;4.18;1.08;;;;;;;8.36;79.25;98038.00;4969840;28;20051;-49
2021/10/31 05:01:39;;;;;;;4.55;1.10;;;;;;;8.40;79.18;98039.63;4966111;28;20050;-53
2021/10/31 05:04:06;;;;;;;5.47;2.28;;;;;;;8.43;79.51;98034.38;4969404;28;20109;-53
2021/10/31 05:06:33;;;;;;;2.30;0.70;;;;;;;8.47;78.74;98029.97;4984329;28;20051;-49
2021/10/31 05:08:59;;;;;;;3.95;0.77;;;;;;;8.49;78.62;98012.75;4969109;28;20368;-48
2021/10/31 05:11:26;;;;;;;3.55;0.63;;;;;;;8.52;79.09;98016.97;4967279;28;20046;-52
2021/10/31 05:13:53;;;;;;;3.75;0.82;;;;;;;8.57;79.36;98020.28;4970294;28;20097;-50
2021/10/31 05:16:20;;;;;;;1.75;0.95;;;;;;;8.56;78.71;98014.31;4969834;28;20191;-55
2021/10/31 05:18:46;;;;;;;2.70;0.75;;;;;;;8.58;78.71;98011.69;4965356;28;20054;-50
2021/10/31 05:21:13;;;;;;;5.63;1.15;;;;;;;8.62;78.84;97992.63;4967405;28;20109;-50
2021/10/31 05:23:39;;;;;;;7.45;0.75;;;;;;;8.66;79.45;97994.25;4964908;28;20050;-52
2021/10/31 05:26:06;;;;;;;3.22;1.10;;;;;;;8.69;79.60;97976.09;4970150;28;20102;-52
2021/10/31 05:28:33;;;;;;;8.30;1.45;;;;;;;8.76;78.85;97968.16;4968167;28;20055;-50
2021/10/31 05:31:00;;;;;;;3.35;1.15;;;;;;;8.79;79.87;97955.16;4968076;28;20046;-53
2021/10/31 05:33:27;;;;;;;3.90;2.35;;;;;;;8.82;80.28;97944.75;4965646;28;20054;-50
2021/10/31 05:35:54;;;;;;;1.13;0.82;;;;;;;8.88;79.57;97929.06;4968116;28;20055;-49
2021/10/31 05:38:21;;;;;;;7.90;1.00;;;;;;;8.90;79.09;97908.38;4971290;28;20046;-48
2021/10/31 05:40:49;;;;;;;2.80;0.40;;;;;;;8.95;79.39;97885.88;4969431;28;20114;-54
2021/10/31 05:43:17;;;;;;;3.55;0.85;;;;;;;8.98;79.95;97875.41;4969234;28;20144;-58
2021/10/31 05:45:45;;;;;;;1.95;0.43;;;;;;;9.00;79.34;97868.47;4982904;28;20059;-54
2021/10/31 05:48:12;;;;;;;7.85;0.98;;;;;;;9.00;79.54;97874.50;4970532;28;20051;-52
2021/10/31 05:50:40;;;;;;;3.83;1.02;;;;;;;9.01;79.79;97865.00;4966362;28;20058;-54
2021/10/31 05:53:07;;;;;;;4.22;0.73;;;;;;;9.00;80.22;97856.44;4967999;28;20101;-50
2021/10/31 05:55:34;;;;;;;3.15;0.60;;;;;;;9.02;79.24;97856.34;4965077;28;20132;-53
2021/10/31 05:58:00;;;;;;;3.97;0.98;;;;;;;8.99;79.39;97849.56;4967257;28;20073;-52
2021/10/31 06:00:27;;;;;;;6.32;1.02;;;;;;;8.99;79.57;97846.97;4962318;28;20118;-53
2021/10/31 06:02:53;;;;;;;1.85;0.47;;;;;;;9.03;80.13;97831.38;4962508;28;20042;-53
2021/10/31 06:05:20;;;;;;;3.95;1.45;;;;;;;9.05;80.25;97820.09;4963520;28;20114;-49
2021/10/31 06:07:47;;;;;;;3.22;1.23;;;;;;;9.07;79.18;97817.47;4965813;28;20059;-49
2021/10/31 06:10:14;;;;;;;8.20;1.10;;;;;;;9.08;80.41;97808.84;4970281;28;20059;-53
2021/10/31 06:12:43;;;;;;;2.20;0.85;;;;;;;9.11;80.36;97803.56;4967463;28;20062;-51
2021/10/31 06:15:10;;;;;;;3.03;0.98;;;;;;;9.13;79.86;97781.13;4969976;28;20060;-53
2021/10/31 06:17:39;;;;;;;4.03;1.00;;;;;;;9.15;80.26;97779.31;4968094;28;20093;-54
2021/10/31 06:20:09;;;;;;;5.47;1.63;;;;;;;9.16;79.98;97777.59;4967790;28;20047;-53
2021/10/31 06:22:36;;;;;;;4.25;1.42;;;;;;;9.17;80.14;97767.22;4965296;28;20058;-55
2021/10/31 06:25:03;;;;;;;4.45;0.47;;;;;;;9.17;80.34;97746.56;4968121;28;20561;-54
2021/10/31 06:27:30;;;;;;;0.93;0.77;;;;;;;9.16;80.28;97760.38;4966802;28;20042;-51
2021/10/31 06:29:57;;;;;;;2.70;0.60;;;;;;;9.21;80.39;97755.03;4966157;28;20463;-54
2021/10/31 06:32:23;;;;;;;4.70;0.75;;;;;;;9.23;80.17;97754.09;4966856;28;20043;-52
2021/10/31 06:34:50;;;;;;;1.50;0.70;;;;;;;9.25;80.44;97743.69;4967900;28;20105;-54
2021/10/31 06:37:17;;;;;;;1.95;0.88;;;;;;;9.24;80.55;97737.72;4969451;28;20047;-56
2021/10/31 06:39:44;;;;;;;3.05;1.15;;;;;;;9.24;81.06;97726.53;4982387;28;20054;-55
2021/10/31 06:42:10;;;;;;;1.52;0.90;;;;;;;9.26;80.35;97704.91;4965074;28;20051;-56
2021/10/31 06:44:37;;;;;;;3.13;1.10;;;;;;;9.26;80.37;97697.16;4966843;28;20051;-58
2021/10/31 06:47:04;;;;;;;4.30;0.57;;;;;;;9.28;81.23;97701.44;4967151;28;20543;-55
2021/10/31 06:49:31;;;;;;;2.28;0.70;;;;;;;9.25;81.57;97703.22;4982291;28;20050;-58
2021/10/31 06:51:59;;;;;;;3.50;0.75;;;;;;;9.25;81.62;97692.03;4966535;28;20051;-53
2021/10/31 06:54:28;;;;;;;1.95;0.43;;;;;;;9.24;81.06;97686.06;4969297;28;20054;-56
2021/10/31 06:56:56;;;;;;;3.45;0.88;;;;;;;9.22;81.86;97672.34;4966516;28;20047;-54
2021/10/31 06:59:22;;;;;;;2.70;0.68;;;;;;;9.22;81.49;97663.75;4979973;28;20066;-54
2021/10/31 07:01:49;;;;;;;2.90;0.85;;;;;;;9.25;81.96;97651.56;4962466;28;20058;-51
2021/10/31 07:04:16;;;;;;;5.20;0.90;;;;;;;9.26;80.90;97637.75;4968913;28;20058;-54
2021/10/31 07:06:42;;;;;;;2.13;0.98;;;;;;;9.28;81.67;97631.72;4963684;28;20098;-50
2021/10/31 07:09:09;;;;;;;6.53;0.77;;;;;;;9.30;81.88;97635.06;4962468;28;20051;-59
2021/10/31 07:11:36;;;;;;;5.82;0.75;;;;;;;9.32;82.38;97633.28;4966843;28;20051;-51
2021/10/31 07:14:07;;;;;;;4.70;0.68;;;;;;;9.30;81.71;97609.22;4964865;28;20553;-55
2021/10/31 07:16:34;;;;;;;5.10;0.90;;;;;;;9.32;82.23;97595.34;4965591;28;20058;-54
2021/10/31 07:19:01;;;;;;;5.88;0.70;;;;;;;9.33;82.13;97591.03;4967945;28;20059;-56
2021/10/31 07:21:27;;;;;;;6.25;1.27;;;;;;;9.32;82.12;97577.25;4967367;28;20125;-55
2021/10/31 07:23:54;;;;;;;7.43;2.05;;;;;;;9.32;82.62;97568.69;4961672;28;20050;-54
2021/10/31 07:26:21;;;;;;;3.63;1.35;;;;;;;9.30;82.44;97565.31;4959630;28;20145;-52
2021/10/31 07:28:47;;;;;;;1.48;0.65;;;;;;;9.34;82.38;97561.72;4965347;28;20089;-56
2021/10/31 07:31:16;;;;;;;5.93;1.10;;;;;;;9.36;82.90;97562.50;4964341;28;20097;-57
2021/10/31 07:33:43;;;;;;;8.00;1.27;;;;;;;9.36;82.42;97555.59;4962461;28;20130;-57
2021/10/31 07:36:09;;;;;;;5.45;1.48;;;;;;;9.41;83.04;97544.22;4966780;28;20117;-49
2021/10/31 07:38:39;;;;;;;6.25;1.75;;;;;;;9.43;82.96;97535.53;4964985;28;20062;-54
2021/10/31 07:41:06;;;;;;;4.40;1.17;;;;;;;9.42;83.17;97528.66;4965310;28;20706;-53
2021/10/31 07:43:33;;;;;;;8.45;1.45;;;;;;;9.48;83.04;97528.44;4965995;28;20061;-54
2021/10/31 07:46:00;;;;;;;8.43;1.38;;;;;;;9.51;83.36;97518.00;4966804;28;20047;-56
2021/10/31 07:48:26;;;;;;;7.85;1.83;;;;;;;9.49;83.30;97518.97;4966554;28;20171;-54
2021/10/31 07:50:53;;;;;;;3.08;0.93;;;;;;;9.51;83.27;97512.81;4963304;28;20046;-55
2021/10/31 07:53:21;;;;;;;3.00;1.10;;;;;;;9.54;83.18;97495.50;4961904;28;20051;-52
2021/10/31 07:55:52;;;;;;;2.88;0.75;;;;;;;9.58;83.19;97492.75;4959877;28;20051;-56
2021/10/31 07:58:23;;;;;;;6.85;1.35;;;;;;;9.60;83.31;97479.78;4962003;28;20105;-55
2021/10/31 08:00:51;;;;;;;6.03;1.15;;;;;;;9.58;83.47;97476.38;4957320;28;20494;-56
2021/10/31 08:03:18;;;;;;;5.80;1.23;;;;;;;9.63;83.24;97474.47;4956259;28;20063;-52
2021/10/31 08:05:46;;;;;;;2.97;1.20;;;;;;;9.65;83.34;97477.84;4963860;28;20054;-53
2021/10/31 08:08:13;;;;;;;7.63;1.52;;;;;;;9.68;83.28;97482.88;4975647;28;20059;-51
2021/10/31 08:10:40;;;;;;;3.38;0.60;;;;;;;9.70;83.09;97454.38;4957283;28;20117;-54
2021/10/31 08:13:06;;;;;;;3.35;1.35;;;;;;;9.76;82.63;97449.81;4967386;28;20112;-51
2021/10/31 08:15:33;;;;;;;8.38;1.33;;;;;;;9.77;83.90;97435.97;4965872;28;20093;-51
2021/10/31 08:17:59;;;;;;;3.33;1.05;;;;;;;9.79;83.68;97438.50;4964920;28;20047;-50
2021/10/31 08:20:26;;;;;;;4.07;0.98;;;;;;;9.81;83.72;97435.84;4964714;28;20725;-53
2021/10/31 08:22:53;;;;;;;3.90;0.95;;;;;;;9.82;83.66;97422.84;4964275;28;20050;-52
2021/10/31 08:25:20;;;;;;;4.38;0.77;;;;;;;9.85;84.09;97411.53;4963908;28;20059;-53
2021/10/31 08:27:47;;;;;;;2.00;1.17;;;;;;;9.90;83.66;97412.22;4963038;28;20480;-54
2021/10/31 08:30:13;;;;;;;4.53;0.77;;;;;;;9.91;83.89;97408.72;4967598;28;20106;-58
2021/10/31 08:32:48;;;;;;;3.83;0.75;;;;;;;9.94;83.89;97398.25;4963589;28;20047;-57
2021/10/31 08:35:15;;;;;;;4.57;1.05;;;;;;;9.97;84.15;97385.16;4965374;28;20066;-52
2021/10/31 08:37:41;;;;;;;4.57;0.40;;;;;;;9.96;83.91;97386.06;4961884;28;20051;-51
2021/10/31 08:40:09;;;;;;;1.00;0.43;;;;;;;9.99;84.40;97352.31;4963883;28;20062;-58
2021/10/31 08:42:37;;;;;;;2.03;0.85;;;;;;;10.01;84.30;97368.63;4965945;28;20129;-56
2021/10/31 08:45:06;;;;;;;3.45;1.08;;;;;;;10.00;84.83;97354.00;4966449;28;20118;-55
2021/10/31 08:47:32;;;;;;;2.25;1.02;;;;;;;10.06;84.63;97331.38;4969714;28;20482;-54
2021/10/31 08:50:00;;;;;;;2.13;0.68;;;;;;;10.11;84.46;97344.94;4970792;28;20038;-55
2021/10/31 08:52:27;;;;;;;1.33;0.30;;;;;;;10.07;85.08;97322.72;4968216;28;20047;-54
2021/10/31 08:54:54;;;;;;;4.28;0.85;;;;;;;10.09;84.49;97313.97;4967286;28;20046;-57
2021/10/31 08:57:20;;;;;;;2.67;0.95;;;;;;;10.10;84.75;97313.06;4970565;28;20043;-55
2021/10/31 08:59:47;;;;;;;1.58;0.50;;;;;;;10.11;84.99;97304.41;4968123;28;20655;-57
2021/10/31 09:02:14;;;;;;;2.75;0.63;;;;;;;10.13;84.58;97301.72;4969574;28;20066;-58
2021/10/31 09:04:41;;;;;;;2.60;0.85;;;;;;;10.18;85.07;97289.44;4976677;28;20063;-54
2021/10/31 09:07:14;;;;;;;3.95;0.60;;;;;;;10.20;84.34;97287.59;4970137;28;20639;-53
2021/10/31 09:09:42;;;;;;;3.17;1.17;;;;;;;10.22;84.33;97272.88;4966412;28;20063;-54
2021/10/31 09:12:11;;;;;;;2.13;0.50;;;;;;;10.26;84.88;97266.66;4967432;28;20054;-52
2021/10/31 09:14:39;;;;;;;2.28;0.65;;;;;;;10.27;84.26;97247.63;4982085;28;20046;-53
2021/10/31 09:17:06;;;;;;;0.93;0.47;;;;;;;10.32;84.30;97249.16;4970790;28;20109;-54
2021/10/31 09:19:34;;;;;;;4.82;1.02;;;;;;;10.33;83.98;97236.16;4969287;28;20086;-54
2021/10/31 09:22:01;;;;;;;2.53;0.98;;;;;;;10.35;84.79;97212.78;4949492;28;20944;-50
2021/10/31 09:24:27;;;;;;;1.25;0.77;;;;;;;10.38;84.70;97202.31;4969643;28;20065;-54
2021/10/31 09:26:54;;;;;;;4.47;0.65;;;;;;;10.42;83.87;97196.06;4965780;28;20486;-58
2021/10/31 09:29:21;;;;;;;1.75;0.75;;;;;;;10.43;84.04;97184.81;4969934;28;20050;-58
2021/10/31 09:31:48;;;;;;;4.40;0.63;;;;;;;10.45;84.50;97182.16;4965893;28;20101;-58
2021/10/31 09:34:14;;;;;;;1.05;0.30;;;;;;;10.49;83.73;97161.25;4970357;28;20182;-57
2021/10/31 09:36:41;;;;;;;2.67;0.40;;;;;;;10.53;83.85;97155.00;4965335;28;20109;-58
2021/10/31 09:39:09;;;;;;;0.85;0.75;;;;;;;10.55;84.04;97147.19;4970983;28;20047;-49
2021/10/31 09:41:36;;;;;;;2.08;0.77;;;;;;;10.58;84.17;97115.13;4965732;28;20055;-54
2021/10/31 09:44:13;;;;;;;3.50;0.55;;;;;;;10.60;83.49;97079.66;4969886;28;20051;-53
2021/10/31 09:46:40;;;;;;;1.67;0.95;;;;;;;10.65;83.67;97064.72;4967312;28;20049;-55
2021/10/31 09:49:10;;;;;;;3.00;0.90;;;;;;;10.70;83.89;97042.03;4966310;28;20112;-54
2021/10/31 09:51:40;;;;;;;2.25;0.65;;;;;;;10.76;83.54;97036.53;4967741;28;20058;-59
2021/10/31 09:54:08;;;;;;;67.35;11.60;;;;;;;10.85;83.05;97029.22;4968214;28;20486;-50
2021/10/31 09:56:37;;;;;;;5.22;0.98;;;;;;;10.87;83.12;97023.03;4966288;28;20106;-56
2021/10/31 09:59:10;;;;;;;2.13;0.88;;;;;;;10.91;83.02;97018.53;4975064;28;20046;-59
2021/10/31 10:02:13;;;;;;;1.08;0.40;;;;;;;10.89;82.85;97015.19;4981348;28;20050;-56
2021/10/31 10:04:49;;;;;;;1.48;0.43;;;;;;;10.89;82.91;97004.81;4964880;28;20427;-53
2021/10/31 10:07:18;;;;;;;1.65;0.47;;;;;;;10.88;83.29;97003.16;4962802;28;20059;-53
2021/10/31 10:09:54;;;;;;;3.20;0.75;;;;;;;10.88;82.29;96992.81;4968649;28;20102;-53
2021/10/31 10:12:23;;;;;;;;;;;;;;;10.75;83.00;97006.41;4965002;28;20109;-57
2021/10/31 10:15:06;;;;;;;0.60;0.35;;;;;;;10.74;81.69;97017.66;4965034;28;19936;-57
2021/10/31 10:17:54;;;;;;;4.40;1.05;;;;;;;10.66;81.67;97020.66;4962552;28;20038;-55
2021/10/31 10:20:22;;;;;;;4.18;1.27;;;;;;;10.61;81.28;97050.28;4964146;28;20853;-55
2021/10/31 10:22:49;;;;;;;3.55;0.73;;;;;;;10.59;81.21;97059.84;4966834;28;20061;-55
2021/10/31 10:25:16;;;;;;;1.20;0.80;;;;;;;10.51;80.66;97053.31;4961553;28;20050;-56
2021/10/31 10:27:54;;;;;;;0.75;0.75;;;;;;;10.44;80.57;97040.75;4963939;28;20146;-56
2021/10/31 10:30:25;;;;;;;0.45;0.40;;;;;;;10.38;80.60;97047.06;4965168;28;20061;-59
2021/10/31 10:32:57;;;;;;;1.55;0.82;;;;;;;10.38;80.76;97039.31;4968115;28;20046;-56
2021/10/31 10:35:27;;;;;;;1.23;0.77;;;;;;;10.33;80.95;97041.31;4966697;28;20051;-58
2021/10/31 10:37:54;;;;;;;1.80;0.77;;;;;;;10.34;80.56;97051.53;4983319;28;20537;-56
2021/10/31 10:40:25;;;;;;;1.10;0.50;;;;;;;10.36;80.86;97067.00;4980072;28;20055;-57
2021/10/31 10:42:56;;;;;;;1.45;0.80;;;;;;;10.43;81.16;97078.72;4981069;28;20758;-56
2021/10/31 10:45:25;;;;;;;3.40;0.98;;;;;;;10.53;81.54;97079.13;4965654;28;20046;-56
2021/10/31 10:47:56;;;;;;;2.88;1.17;;;;;;;10.67;81.36;97078.41;4961839;28;20196;-57
2021/10/31 10:50:26;;;;;;;3.30;0.65;;;;;;;10.78;82.05;97073.53;4968251;28;20550;-59
2021/10/31 10:52:55;;;;;;;7.72;1.10;;;;;;;10.96;81.63;97077.84;4963498;28;20047;-52
2021/10/31 10:55:27;;;;;;;0.95;0.77;;;;;;;11.07;80.98;97101.41;4965221;28;20047;-57
2021/10/31 10:57:57;;;;;;;12.20;0.93;;;;;;;11.30;81.27;97123.53;4979466;28;20050;-53
2021/10/31 11:00:30;;;;;;;0.55;0.20;;;;;;;11.51;82.34;97135.41;4962094;28;20110;-56
2021/10/31 11:03:05;;;;;;;5.10;1.00;;;;;;;11.72;81.19;97138.59;4964406;28;20418;-49
2021/10/31 11:05:36;;;;;;;5.57;1.35;;;;;;;11.92;80.92;97141.91;4971264;28;20045;-56
2021/10/31 11:08:13;;;;;;;2.35;0.63;;;;;;;12.01;81.57;97146.56;4964781;28;20050;-56
2021/10/31 11:10:54;;;;;;;2.50;0.50;;;;;;;12.13;79.90;97152.84;4966239;28;20120;-56
2021/10/31 11:13:22;;;;;;;1.10;0.55;;;;;;;12.19;80.51;97156.84;4960984;28;20118;-52
2021/10/31 11:15:49;;;;;;;2.17;0.80;;;;;;;12.23;80.76;97163.56;4979785;28;20058;-51
2021/10/31 11:18:16;;;;;;;1.38;0.50;;;;;;;12.24;79.79;97165.25;4964971;28;20455;-52
2021/10/31 11:20:45;;;;;;;2.42;0.80;;;;;;;12.25;79.92;97181.63;4966852;28;20050;-54
2021/10/31 11:23:17;;;;;;;3.45;0.73;;;;;;;12.22;79.17;97185.22;4981558;28;20047;-53
2021/10/31 11:25:46;;;;;;;0.65;0.52;;;;;;;12.21;78.94;97199.13;4976545;28;20051;-51
2021/10/31 11:28:16;;;;;;;2.80;0.47;;;;;;;12.18;78.39;97191.50;4967552;28;20546;-57
2021/10/31 11:30:45;;;;;;;1.23;0.60;;;;;;;12.11;78.41;97191.03;4963493;28;20430;-59
2021/10/31 11:33:13;;;;;;;6.10;0.75;;;;;;;12.10;78.63;97204.06;4966720;28;20146;-49
2021/10/31 11:35:40;;;;;;;2.35;0.68;;;;;;;12.14;78.28;97205.56;4961891;28;20924;-49
2021/10/31 11:38:14;;;;;;;3.33;0.50;;;;;;;12.15;78.18;97209.84;4962703;28;20093;-56
2021/10/31 11:40:57;;;;;;;3.22;0.32;;;;;;;12.17;77.70;97206.25;4962166;28;20050;-48
2021/10/31 11:43:27;;;;;;;1.98;0.70;;;;;;;12.24;77.00;97209.34;4959693;28;20055;-54
2021/10/31 11:45:54;;;;;;;;;;;;;;;12.25;76.66;97213.63;4964510;28;20047;-52
2021/10/31 11:48:25;;;;;;;2.53;0.85;;;;;;;12.34;77.56;97200.13;4960457;28;19922;-54
2021/10/31 11:51:08;;;;;;;6.68;0.95;;;;;;;12.42;77.76;97198.84;4965851;28;20062;-53